Terminal Aerodrome Forecast
Issued by NWS Paducah, KY

Home | Current Version | Previous Version | Graphics & Text | Print | Product List | Glossary On
Versions: 1 2 3 4 5 6 7 8 9 10 11 12 13 14 15 16 17 18 19 20 21 22 23 24 25 26 27 28
000
FTUS43 KPAH 181700
TAFPAH
TAF
KPAH 181720Z 1818/1918 VRB05KT 5SM BR OVC006
     FM181900 06004KT P6SM SCT015 OVC050
      TEMPO 1819/1823 5SM BR OVC015
     FM182300 04002KT P6SM OVC025
      TEMPO 1908/1912 5SM BR
     FM191500 06004KT P6SM BKN030=

USA.gov is the U.S. government's official web portal to all federal, state and local government web resources and services.